Terminal Aerodrome Forecast
Issued by NWS

Home | Current Version | Previous Version | Text Only | Print | Product List | Glossary On
Versions: 1 2 3 4 5 6 7 8 9 10 11 12 13 14 15
000
FTUS46 KPDT 011723
TAFBDN
TAF
KBDN 011723Z 0118/0218 VRB04KT P6SM SKC
     FM012000 33011KT P6SM SCT070
     FM020400 21006KT P6SM SKC=

USA.gov is the U.S. government's official web portal to all federal, state and local government web resources and services.